Time;durP1;ratioP1;P1;durP2;ratioP2;P2;SDS_P1;SDS_P2;PMS_P1;PMS_P2;Temp;Humidity;BMP_temperature;BMP_pressure;BME280_temperature;BME280_humidity;BME280_pressure;Samples;Min_cycle;Max_cycle;Signal;HPM_P1;HPM_P2
2022/12/11 00:00:44;;;;;;;4.27;2.67;;;;;;;1.18;100.00;98171.89;1476128;88;22031;-92
2022/12/11 00:03:10;;;;;;;3.50;2.50;;;;;;;1.16;100.00;98170.75;1476159;88;21941;-92
2022/12/11 00:05:40;;;;;;;5.80;2.73;;;;;;;1.16;100.00;98170.75;1473101;88;21886;-92
2022/12/11 00:08:07;;;;;;;4.60;2.63;;;;;;;1.14;100.00;98166.16;1467109;88;22117;-92
2022/12/11 00:10:33;;;;;;;3.97;2.70;;;;;;;1.21;100.00;98163.78;1474168;88;22113;-91
2022/12/11 00:12:59;;;;;;;3.70;2.77;;;;;;;1.12;100.00;98163.70;1473937;88;22009;-89
2022/12/11 00:15:25;;;;;;;3.67;2.43;;;;;;;1.10;100.00;98150.48;1481109;88;22018;-93
2022/12/11 00:17:51;;;;;;;3.27;2.20;;;;;;;1.13;100.00;98164.52;1483302;88;21479;-89
2022/12/11 00:20:17;;;;;;;5.47;3.70;;;;;;;1.13;100.00;98164.52;1479784;88;22185;-84
2022/12/11 00:22:43;;;;;;;3.70;2.07;;;;;;;1.09;100.00;98161.84;1470993;88;21889;-90
2022/12/11 00:25:10;;;;;;;3.43;2.77;;;;;;;1.10;100.00;98150.48;1471452;88;22032;-92
2022/12/11 00:27:36;;;;;;;3.20;2.43;;;;;;;1.04;100.00;98164.08;1473727;88;21959;-90
2022/12/11 00:30:04;;;;;;;3.80;2.20;;;;;;;1.08;100.00;98165.42;1479349;88;21868;-93
2022/12/11 00:32:30;;;;;;;2.73;2.00;;;;;;;1.00;100.00;98160.10;1473747;88;21853;-91
2022/12/11 00:34:57;;;;;;;2.77;1.80;;;;;;;0.97;100.00;98157.30;1478665;88;21795;-91
2022/12/11 00:37:23;;;;;;;2.90;2.13;;;;;;;0.97;100.00;98157.30;1479217;88;22806;-89
2022/12/11 00:39:49;;;;;;;4.10;2.20;;;;;;;1.03;100.00;98171.05;1474844;88;22673;-91
2022/12/11 00:42:15;;;;;;;2.53;1.80;;;;;;;1.04;100.00;98175.80;1459798;88;21974;-91
2022/12/11 00:44:41;;;;;;;4.30;2.10;;;;;;;1.04;100.00;98170.59;1478194;88;21428;-92
2022/12/11 00:47:07;;;;;;;2.80;1.90;;;;;;;1.03;100.00;98148.09;1466789;88;22089;-91
2022/12/11 00:49:33;;;;;;;3.87;1.80;;;;;;;1.03;100.00;98148.09;1468044;88;21881;-90
2022/12/11 00:51:59;;;;;;;6.20;1.70;;;;;;;0.97;100.00;98144.27;1473299;88;21451;-92
2022/12/11 00:54:25;;;;;;;1.57;1.47;;;;;;;0.97;100.00;98132.55;1485490;88;21738;-91
2022/12/11 00:56:53;;;;;;;2.73;2.00;;;;;;;0.92;100.00;98119.13;1475968;88;23279;-89
2022/12/11 00:59:19;;;;;;;2.43;1.50;;;;;;;0.92;100.00;98119.13;1479007;88;21798;-90
2022/12/11 01:01:46;;;;;;;3.43;2.03;;;;;;;0.97;100.00;98116.92;1480444;88;22730;-87
2022/12/11 01:04:12;;;;;;;4.57;1.93;;;;;;;0.88;100.00;98100.38;1475881;88;21637;-89
2022/12/11 01:14:03;;;;;;;2.23;1.40;;;;;;;0.89;100.00;98102.48;1477935;88;21523;-85
2022/12/11 01:16:31;;;;;;;1.63;1.43;;;;;;;0.84;100.00;98099.52;1475549;88;21833;-87
2022/12/11 01:18:58;;;;;;;4.17;2.13;;;;;;;0.84;100.00;98099.52;1482823;88;21781;-87
2022/12/11 01:21:24;;;;;;;3.40;1.70;;;;;;;0.83;100.00;98093.47;1479526;88;21746;-89
2022/12/11 01:23:51;;;;;;;5.03;1.77;;;;;;;0.87;100.00;98088.81;1472506;88;21709;-89
2022/12/11 01:26:18;;;;;;;1.77;1.47;;;;;;;0.89;100.00;98095.52;1482079;88;21773;-89
2022/12/11 01:28:44;;;;;;;3.60;2.43;;;;;;;0.85;100.00;98099.84;1464764;88;21789;-93
2022/12/11 01:31:13;;;;;;;5.63;2.30;;;;;;;0.86;100.00;98099.72;1479085;88;21819;-89
2022/12/11 01:33:40;;;;;;;2.00;1.80;;;;;;;0.85;100.00;98092.03;1489575;88;21878;-92
2022/12/11 01:36:17;;;;;;;2.07;1.43;;;;;;;0.85;100.00;98092.03;1485564;88;21924;-93
2022/12/11 01:38:48;;;;;;;1.80;1.30;;;;;;;0.86;100.00;98097.11;1489734;88;22662;-91
2022/12/11 01:41:16;;;;;;;2.85;1.45;;;;;;;0.80;100.00;98085.94;1487673;88;21738;-89
2022/12/11 01:44:01;;;;;;;2.00;1.40;;;;;;;0.77;100.00;98084.92;1484000;88;21991;-91
2022/12/11 01:46:29;;;;;;;2.90;1.47;;;;;;;0.75;100.00;98076.45;1478327;88;21933;-93
2022/12/11 01:48:57;;;;;;;2.87;1.80;;;;;;;0.73;100.00;98071.05;1481508;88;21825;-90
2022/12/11 01:51:24;;;;;;;1.93;1.47;;;;;;;0.67;100.00;98069.84;1470923;88;22927;-91
2022/12/11 01:53:55;;;;;;;5.20;2.00;;;;;;;0.67;100.00;98063.33;1482390;88;21930;-92
2022/12/11 01:56:21;;;;;;;;;;;;;;;0.69;100.00;98052.27;1485432;88;21951;-91
2022/12/11 01:58:53;;;;;;;2.53;1.77;;;;;;;0.70;100.00;98059.13;1483566;88;20253;-90
2022/12/11 02:01:33;;;;;;;2.20;1.30;;;;;;;0.62;100.00;98041.61;1475378;88;21803;-91
2022/12/11 02:04:01;;;;;;;3.37;2.05;;;;;;;0.62;100.00;98044.22;1479225;88;21805;-91
2022/12/11 02:06:45;;;;;;;3.57;1.27;;;;;;;0.55;100.00;98030.15;1487092;88;21464;-82
2022/12/11 02:09:20;;;;;;;2.73;1.60;;;;;;;0.58;100.00;98038.97;1474802;88;21788;-92
2022/12/11 02:12:08;;;;;;;2.27;1.47;;;;;;;0.57;100.00;98020.88;1472450;88;22719;-92
2022/12/11 02:15:14;;;;;;;3.97;1.60;;;;;;;0.52;100.00;98019.17;1479429;88;22406;-92
2022/12/11 02:18:06;;;;;;;2.30;1.73;;;;;;;0.50;100.00;98010.23;1481815;88;21610;-90
2022/12/11 02:21:07;;;;;;;2.23;1.10;;;;;;;0.44;100.00;97994.70;1483823;88;22556;-88
2022/12/11 02:23:45;;;;;;;4.67;1.30;;;;;;;0.39;100.00;97982.59;1480995;88;23238;-91
2022/12/11 02:26:22;;;;;;;2.43;1.77;;;;;;;0.38;100.00;97986.17;1480478;88;22397;-90
2022/12/11 02:28:57;;;;;;;1.73;1.40;;;;;;;0.41;100.00;97980.67;1474956;88;21697;-92
2022/12/11 02:31:43;;;;;;;2.87;1.57;;;;;;;0.38;100.00;97986.17;1483198;88;21805;-89
2022/12/11 02:34:21;;;;;;;1.63;1.27;;;;;;;0.43;100.00;97983.97;1479761;88;21745;-91
2022/12/11 02:36:52;;;;;;;3.13;1.67;;;;;;;0.43;100.00;97983.12;1488414;88;21910;-92
2022/12/11 02:39:21;;;;;;;2.77;1.77;;;;;;;0.41;100.00;97975.47;1471696;88;21734;-93
2022/12/11 02:41:50;;;;;;;4.60;1.27;;;;;;;0.38;100.00;97982.27;1487957;88;21576;-89
2022/12/11 02:44:24;;;;;;;1.77;1.40;;;;;;;0.38;100.00;97979.66;1477858;88;21656;-92
2022/12/11 02:46:53;;;;;;;2.33;1.70;;;;;;;0.37;100.00;97972.80;1484985;88;21716;-91
2022/12/11 02:49:22;;;;;;;3.90;1.67;;;;;;;0.37;100.00;97957.67;1479974;88;21856;-92
2022/12/11 02:51:50;;;;;;;1.73;1.40;;;;;;;0.36;100.00;97955.56;1462850;88;21725;-88
2022/12/11 02:57:26;;;;;;;2.30;1.40;;;;;;;0.36;100.00;97946.45;1478031;86;21886;-93
2022/12/11 02:59:53;;;;;;;5.53;1.40;;;;;;;0.43;100.00;97925.87;1483362;88;21681;-89
2022/12/11 03:02:19;;;;;;;1.70;1.10;;;;;;;0.41;100.00;97918.70;1485186;87;21654;-89
2022/12/11 03:04:47;;;;;;;2.57;1.40;;;;;;;0.41;100.00;97912.20;1478557;87;21600;-90
2022/12/11 03:07:27;;;;;;;1.60;1.20;;;;;;;0.39;100.00;97918.03;1482792;87;21786;-87
2022/12/11 03:09:54;;;;;;;2.73;1.27;;;;;;;0.40;100.00;97936.57;1485406;87;21720;-91
2022/12/11 03:12:25;;;;;;;3.40;1.47;;;;;;;0.38;100.00;97930.71;1484722;87;22721;-91
2022/12/11 03:14:51;;;;;;;5.47;1.10;;;;;;;0.38;100.00;97930.71;1475880;87;22730;-93
2022/12/11 03:17:22;;;;;;;3.53;1.40;;;;;;;0.36;100.00;97918.31;1484021;88;21689;-93
2022/12/11 03:19:52;;;;;;;;;;;;;;;0.36;100.00;97897.50;1489126;87;22803;-90
2022/12/11 03:22:32;;;;;;;1.47;1.13;;;;;;;0.28;100.00;97904.72;1478790;87;20289;-92
2022/12/11 03:25:10;;;;;;;2.13;1.43;;;;;;;0.29;100.00;97921.98;1482432;88;21726;-92
2022/12/11 03:27:56;;;;;;;3.07;1.40;;;;;;;0.30;100.00;97920.20;1483485;88;21681;-93
2022/12/11 03:30:27;;;;;;;9.40;1.73;;;;;;;0.33;100.00;97915.52;1483408;87;21721;-89
2022/12/11 03:33:08;;;;;;;2.57;1.43;;;;;;;0.30;100.00;97908.00;1487294;88;21725;-93
2022/12/11 03:35:49;;;;;;;1.93;1.20;;;;;;;0.35;100.00;97897.17;1477632;88;21369;-93
2022/12/11 03:38:23;;;;;;;1.87;1.50;;;;;;;0.28;100.00;97873.98;1483269;88;21854;-94
2022/12/11 03:40:54;;;;;;;3.07;1.87;;;;;;;0.31;100.00;97869.79;1478086;88;21429;-94
2022/12/11 03:43:21;;;;;;;;;;;;;;;0.30;100.00;97881.98;1487635;87;21761;-92
2022/12/11 03:45:50;;;;;;;3.43;1.50;;;;;;;0.27;100.00;97868.45;1488074;88;20295;-91
2022/12/11 03:48:17;;;;;;;3.13;1.97;;;;;;;0.24;100.00;97860.95;1478688;88;21612;-92
2022/12/11 03:50:45;;;;;;;1.93;1.20;;;;;;;0.24;100.00;97860.95;1479321;87;22737;-93
2022/12/11 03:53:12;;;;;;;3.30;1.60;;;;;;;0.22;100.00;97879.28;1488949;87;21587;-90
2022/12/11 03:55:39;;;;;;;3.03;2.00;;;;;;;0.22;100.00;97871.48;1485060;88;21729;-92
2022/12/11 03:58:05;;;;;;;2.57;1.60;;;;;;;0.24;100.00;97855.73;1472091;87;21719;-94
2022/12/11 04:00:32;;;;;;;2.77;1.70;;;;;;;0.25;100.00;97852.98;1478201;87;22496;-91
2022/12/11 04:03:14;;;;;;;10.17;2.90;;;;;;;0.24;100.00;97847.94;1467292;88;21690;-93
2022/12/11 04:05:45;;;;;;;1.77;1.30;;;;;;;0.24;100.00;97836.23;1484014;88;21785;-88
2022/12/11 04:08:12;;;;;;;2.20;1.75;;;;;;;0.21;100.00;97829.53;1470446;87;21718;-90
2022/12/11 04:10:40;;;;;;;2.87;1.90;;;;;;;0.22;100.00;97827.25;1478441;88;21438;-87
2022/12/11 04:13:07;;;;;;;4.40;1.87;;;;;;;0.21;100.00;97814.73;1472102;87;21718;-91
2022/12/11 04:15:34;;;;;;;2.23;1.80;;;;;;;0.19;100.00;97817.14;1467567;87;21736;-90
2022/12/11 04:26:19;;;;;;;1.37;1.10;;;;;;;0.24;100.00;97848.75;1476772;87;21723;-90
2022/12/11 04:28:48;;;;;;;3.10;2.03;;;;;;;0.25;100.00;97849.56;1476620;87;21671;-88
2022/12/11 04:31:18;;;;;;;6.77;1.60;;;;;;;0.22;100.00;97856.69;1474737;87;21678;-88
2022/12/11 04:33:46;;;;;;;1.85;0.85;;;;;;;0.21;100.00;97868.06;1480021;88;21741;-93
2022/12/11 04:36:12;;;;;;;2.67;1.67;;;;;;;0.17;100.00;97861.98;1471437;87;22642;-92
2022/12/11 04:38:40;;;;;;;2.40;1.57;;;;;;;0.17;100.00;97858.92;1480434;87;22393;-91
2022/12/11 04:41:10;;;;;;;1.80;1.70;;;;;;;0.15;100.00;97863.93;1486337;87;21696;-88
2022/12/11 04:43:36;;;;;;;1.73;1.33;;;;;;;0.14;100.00;97851.37;1475693;88;21720;-91
2022/12/11 04:46:18;;;;;;;2.90;1.70;;;;;;;0.16;100.00;97852.55;1473749;88;22973;-87
2022/12/11 04:48:45;;;;;;;2.20;1.20;;;;;;;0.10;100.00;97851.83;1472038;87;21622;-92
2022/12/11 04:51:13;;;;;;;1.90;1.13;;;;;;;0.13;100.00;97845.85;1477623;87;22559;-91
2022/12/11 04:53:39;;;;;;;2.53;1.97;;;;;;;0.11;100.00;97836.55;1482033;88;21612;-91
2022/12/11 04:56:09;;;;;;;2.30;1.37;;;;;;;0.11;100.00;97841.75;1479829;88;21493;-92
2022/12/11 04:58:37;;;;;;;2.43;1.10;;;;;;;0.09;100.00;97845.00;1470990;88;21888;-90
2022/12/11 05:01:12;;;;;;;2.60;1.80;;;;;;;0.04;100.00;97838.11;1476920;88;21551;-92
2022/12/11 05:03:45;;;;;;;2.03;1.50;;;;;;;0.10;100.00;97838.83;1476398;88;21691;-90
2022/12/11 05:06:13;;;;;;;3.67;2.43;;;;;;;0.06;100.00;97830.50;1475914;87;21801;-90
2022/12/11 05:08:42;;;;;;;2.93;1.67;;;;;;;0.09;100.00;97846.30;1473395;88;21595;-90
2022/12/11 05:11:11;;;;;;;1.87;1.60;;;;;;;0.10;100.00;97841.43;1472920;88;21685;-90
2022/12/11 05:13:38;;;;;;;1.67;1.30;;;;;;;0.11;100.00;97859.96;1474794;87;21696;-90
2022/12/11 05:16:07;;;;;;;2.83;1.40;;;;;;;0.06;100.00;97889.48;1472955;88;21733;-88
2022/12/11 05:18:34;;;;;;;1.97;1.40;;;;;;;0.15;100.00;97904.25;1472511;88;22748;-90
2022/12/11 05:21:04;;;;;;;2.47;1.40;;;;;;;0.18;100.00;97904.77;1474382;87;21963;-89
2022/12/11 05:23:31;;;;;;;2.15;1.47;;;;;;;0.22;100.00;97911.31;1478360;87;21646;-89
2022/12/11 05:26:01;;;;;;;2.03;1.20;;;;;;;0.27;100.00;97912.20;1468112;88;21456;-89
2022/12/11 05:28:30;;;;;;;2.13;1.80;;;;;;;0.23;100.00;97893.92;1475479;88;21726;-90
2022/12/11 05:31:10;;;;;;;1.90;1.40;;;;;;;0.15;100.00;97890.75;1473438;88;22463;-91
2022/12/11 05:33:36;;;;;;;3.00;1.40;;;;;;;0.09;100.00;97897.02;1471192;88;21673;-91
2022/12/11 05:36:02;;;;;;;1.20;1.07;;;;;;;0.01;100.00;97926.33;1474859;87;22953;-91
2022/12/11 05:38:28;;;;;;;1.87;1.37;;;;;;;-0.01;100.00;97950.34;1462576;88;21763;-90
2022/12/11 05:40:59;;;;;;;0.97;0.83;;;;;;;0.04;100.00;97957.73;1476861;87;22613;-91
2022/12/11 05:43:27;;;;;;;1.80;1.00;;;;;;;0.07;100.00;97957.45;1470484;88;21686;-92
2022/12/11 05:46:13;;;;;;;1.53;1.17;;;;;;;0.10;100.00;97937.66;1474057;88;21560;-89
2022/12/11 05:48:41;;;;;;;1.53;1.03;;;;;;;0.07;100.00;97921.05;1478985;88;22498;-91
2022/12/11 05:51:08;;;;;;;7.73;1.43;;;;;;;0.07;100.00;97909.34;1473812;87;21787;-90
2022/12/11 05:53:36;;;;;;;1.57;1.47;;;;;;;0.01;100.00;97909.91;1474186;88;22297;-90
2022/12/11 05:56:07;;;;;;;5.13;2.07;;;;;;;-0.05;100.00;97934.22;1468903;88;22506;-89
2022/12/11 05:58:34;;;;;;;1.60;1.07;;;;;;;0.01;100.00;97938.52;1478714;88;21711;-92
2022/12/11 06:01:01;;;;;;;2.07;1.43;;;;;;;-0.01;100.00;97936.05;1474183;87;21471;-92
2022/12/11 06:03:27;;;;;;;1.20;1.10;;;;;;;-0.04;100.00;97931.12;1468222;88;22627;-94
2022/12/11 06:05:53;;;;;;;1.23;1.00;;;;;;;-0.01;100.00;97926.45;1483085;88;21587;-94
2022/12/11 06:08:20;;;;;;;3.83;1.10;;;;;;;0.01;100.00;97929.42;1476381;87;21658;-91
2022/12/11 06:10:49;;;;;;;1.10;0.90;;;;;;;-0.07;100.00;97925.73;1475462;87;21850;-93
2022/12/11 06:13:16;;;;;;;1.60;1.17;;;;;;;-0.08;100.00;97921.50;1468450;87;21694;-89
2022/12/11 06:15:42;;;;;;;3.20;1.73;;;;;;;-0.12;100.00;97924.02;1484119;87;21670;-91
2022/12/11 06:18:08;;;;;;;2.17;1.10;;;;;;;-0.09;100.00;97927.64;1472761;87;21579;-91
2022/12/11 06:20:35;;;;;;;3.77;1.63;;;;;;;-0.09;100.00;97934.14;1476523;87;21735;-89
2022/12/11 06:23:02;;;;;;;2.07;1.33;;;;;;;-0.07;100.00;97927.52;1469576;87;22486;-91
2022/12/11 06:25:29;;;;;;;1.80;1.23;;;;;;;-0.09;100.00;97947.14;1477851;87;21623;-87
2022/12/11 06:27:55;;;;;;;1.70;0.93;;;;;;;-0.16;100.00;97935.68;1476054;87;21785;-90
2022/12/11 06:30:22;;;;;;;2.63;1.60;;;;;;;-0.15;100.00;97939.91;1478023;88;21778;-91
2022/12/11 06:32:49;;;;;;;1.57;1.13;;;;;;;-0.15;100.00;97937.31;1480856;87;21654;-92
2022/12/11 06:35:15;;;;;;;1.33;0.97;;;;;;;-0.14;100.00;97951.97;1476139;88;21682;-92
2022/12/11 06:37:41;;;;;;;1.60;0.90;;;;;;;-0.13;100.00;97956.69;1471375;87;21704;-91
2022/12/11 06:40:11;;;;;;;1.63;1.00;;;;;;;-0.16;100.00;97954.36;1481521;87;21796;-92
2022/12/11 06:42:38;;;;;;;3.00;1.45;;;;;;;-0.18;100.00;97984.39;1472534;88;22944;-91
2022/12/11 06:45:05;;;;;;;2.70;1.40;;;;;;;-0.12;100.00;97986.42;1464061;88;21448;-91
2022/12/11 06:47:32;;;;;;;1.87;1.40;;;;;;;-0.14;100.00;97997.47;1474863;87;22596;-88
2022/12/11 06:49:58;;;;;;;2.97;1.40;;;;;;;-0.11;100.00;97987.27;1469362;88;21801;-87
2022/12/11 06:52:26;;;;;;;1.97;1.30;;;;;;;-0.13;100.00;98002.18;1480789;87;22544;-88
2022/12/11 06:54:53;;;;;;;0.80;0.73;;;;;;;-0.12;100.00;97991.63;1478273;87;21412;-89
2022/12/11 06:57:19;;;;;;;2.23;1.10;;;;;;;-0.08;100.00;98006.48;1478167;87;21645;-92
2022/12/11 06:59:45;;;;;;;1.17;0.93;;;;;;;-0.10;100.00;97997.52;1477508;88;21572;-93
2022/12/11 07:02:14;;;;;;;1.03;0.87;;;;;;;-0.11;100.00;97999.78;1475276;88;21616;-93
2022/12/11 07:04:40;;;;;;;5.00;1.20;;;;;;;-0.12;100.00;98016.33;1481674;88;21634;-92
2022/12/11 07:07:08;;;;;;;1.60;1.33;;;;;;;-0.08;100.00;98024.20;1475546;88;22649;-92
2022/12/11 07:09:39;;;;;;;1.17;1.00;;;;;;;-0.08;100.00;98033.31;1479863;88;22761;-90
2022/12/11 07:12:06;;;;;;;1.52;1.32;;;;;;;-0.09;100.00;98042.53;1483185;87;21649;-92
2022/12/11 07:14:32;;;;;;;2.30;1.07;;;;;;;-0.07;100.00;98046.64;1478713;88;21492;-90
2022/12/11 07:16:59;;;;;;;2.10;0.80;;;;;;;-0.13;100.00;98056.78;1480701;88;21600;-90
2022/12/11 07:19:26;;;;;;;1.07;0.97;;;;;;;-0.04;100.00;98057.25;1475904;87;21670;-91
2022/12/11 07:21:52;;;;;;;1.30;0.90;;;;;;;-0.06;100.00;98060.45;1480616;87;21713;-92
2022/12/11 07:24:18;;;;;;;1.13;0.80;;;;;;;-0.09;100.00;98066.75;1479066;87;22591;-91
2022/12/11 07:26:45;;;;;;;4.77;1.20;;;;;;;-0.08;100.00;98091.81;1484030;88;21771;-89
2022/12/11 07:29:11;;;;;;;1.20;0.90;;;;;;;-0.08;100.00;98098.31;1473681;87;21676;-92
2022/12/11 07:31:37;;;;;;;1.77;1.10;;;;;;;-0.05;100.00;98100.64;1480582;87;22630;-92
2022/12/11 07:34:06;;;;;;;1.03;0.70;;;;;;;-0.02;100.00;98118.56;1481131;87;21690;-90
2022/12/11 07:36:34;;;;;;;1.23;1.00;;;;;;;-0.06;100.00;98138.02;1481871;88;21839;-90
2022/12/11 07:39:00;;;;;;;2.20;1.30;;;;;;;-0.06;100.00;98154.07;1481365;87;21779;-90
2022/12/11 07:41:27;;;;;;;5.50;1.80;;;;;;;-0.09;100.00;98158.24;1477384;88;21752;-88
2022/12/11 07:43:55;;;;;;;2.67;2.20;;;;;;;-0.10;100.00;98156.13;1480284;88;21774;-85
2022/12/11 07:46:25;;;;;;;8.90;5.53;;;;;;;-0.02;100.00;98165.86;1490538;88;22745;-88
2022/12/11 07:48:52;;;;;;;2.33;2.10;;;;;;;-0.12;100.00;98171.03;1486427;88;21632;-87
2022/12/11 07:51:26;;;;;;;2.87;1.63;;;;;;;-0.04;100.00;98184.19;1481213;88;21544;-79
2022/12/11 07:53:59;;;;;;;1.40;1.10;;;;;;;-0.11;100.00;98185.70;1479323;87;21648;-80
2022/12/11 07:56:27;;;;;;;1.50;1.40;;;;;;;-0.11;100.00;98196.09;1479610;88;22549;-80
2022/12/11 07:58:54;;;;;;;1.30;1.00;;;;;;;-0.06;100.00;98192.63;1472540;87;22670;-81
2022/12/11 08:01:24;;;;;;;2.10;1.40;;;;;;;-0.07;100.00;98196.16;1479151;88;21662;-81
2022/12/11 08:03:52;;;;;;;1.80;1.10;;;;;;;-0.11;100.00;98210.88;1480667;87;22461;-81
2022/12/11 08:06:20;;;;;;;2.23;1.63;;;;;;;-0.06;100.00;98214.73;1483796;88;22506;-80
2022/12/11 08:08:47;;;;;;;2.07;1.47;;;;;;;-0.09;100.00;98214.97;1477365;88;21714;-80
2022/12/11 08:11:14;;;;;;;2.57;1.17;;;;;;;-0.09;100.00;98227.16;1481573;88;21655;-80
2022/12/11 08:13:43;;;;;;;3.93;1.07;;;;;;;-0.09;100.00;98219.35;1474334;88;21762;-80
2022/12/11 08:16:14;;;;;;;1.43;1.30;;;;;;;-0.06;100.00;98235.53;1475378;88;21825;-81
2022/12/11 08:18:42;;;;;;;1.35;0.88;;;;;;;0.04;100.00;98255.53;1484828;88;21684;-81
2022/12/11 08:21:12;;;;;;;3.27;1.60;;;;;;;0.08;100.00;98269.41;1485204;87;21455;-81
2022/12/11 08:23:38;;;;;;;3.40;1.73;;;;;;;0.10;100.00;98283.11;1483379;88;21780;-81
2022/12/11 08:26:07;;;;;;;1.33;1.00;;;;;;;0.15;100.00;98295.73;1483304;88;22638;-82
2022/12/11 08:28:34;;;;;;;3.30;1.17;;;;;;;0.14;100.00;98286.27;1473256;88;21780;-80
2022/12/11 08:31:06;;;;;;;1.77;0.87;;;;;;;0.17;100.00;98296.40;1463077;88;21708;-81
2022/12/11 08:33:35;;;;;;;2.30;1.83;;;;;;;0.15;100.00;98311.34;1482151;87;22595;-80
2022/12/11 08:36:07;;;;;;;1.70;1.03;;;;;;;0.21;100.00;98323.33;1480306;87;21744;-81
2022/12/11 08:38:34;;;;;;;1.50;1.40;;;;;;;0.26;100.00;98333.34;1480179;88;21617;-81
2022/12/11 08:41:15;;;;;;;2.00;1.63;;;;;;;0.30;100.00;98339.91;1477614;88;21713;-80
2022/12/11 08:43:42;;;;;;;1.92;1.22;;;;;;;0.29;100.00;98335.68;1483542;87;21878;-80
2022/12/11 08:46:10;;;;;;;3.03;1.87;;;;;;;0.22;100.00;98340.58;1478601;87;21559;-80
2022/12/11 08:48:38;;;;;;;4.00;2.73;;;;;;;0.20;100.00;98360.72;1469767;88;21596;-80
2022/12/11 08:51:09;;;;;;;1.77;1.43;;;;;;;0.19;100.00;98359.53;1476139;88;22678;-80
2022/12/11 08:53:36;;;;;;;2.22;1.55;;;;;;;0.15;100.00;98371.17;1470867;88;21695;-80
2022/12/11 08:56:07;;;;;;;4.20;1.37;;;;;;;0.16;100.00;98378.02;1462207;88;22454;-79
2022/12/11 08:58:33;;;;;;;4.22;1.55;;;;;;;0.13;100.00;98380.88;1485817;88;23246;-82
2022/12/11 09:00:59;;;;;;;6.70;2.43;;;;;;;0.09;100.00;98378.20;1482994;88;21502;-80
2022/12/11 09:03:25;;;;;;;2.87;1.63;;;;;;;0.11;100.00;98371.07;1481669;88;21648;-81
2022/12/11 09:05:51;;;;;;;2.37;1.60;;;;;;;0.19;100.00;98377.75;1475161;88;21594;-78
2022/12/11 09:08:17;;;;;;;5.43;2.13;;;;;;;0.25;100.00;98394.13;1480809;88;22261;-78
2022/12/11 09:10:43;;;;;;;2.93;2.00;;;;;;;0.38;100.00;98397.33;1484055;88;21507;-78
2022/12/11 09:13:10;;;;;;;6.20;2.60;;;;;;;0.37;100.00;98410.45;1468699;88;21566;-78
2022/12/11 09:15:41;;;;;;;4.13;2.70;;;;;;;0.38;100.00;98418.15;1478673;87;22483;-78
2022/12/11 09:18:07;;;;;;;7.60;3.17;;;;;;;0.38;100.00;98429.86;1479201;88;21758;-78
2022/12/11 09:20:36;;;;;;;6.13;3.43;;;;;;;0.46;100.00;98447.40;1476711;87;21470;-78
2022/12/11 09:23:02;;;;;;;10.23;5.57;;;;;;;0.49;100.00;98449.77;1474228;88;23019;-78
2022/12/11 09:25:28;;;;;;;9.33;4.53;;;;;;;0.46;100.00;98446.09;1483694;88;21673;-78
2022/12/11 09:27:54;;;;;;;7.57;4.07;;;;;;;0.47;100.00;98446.95;1478737;88;22250;-78
2022/12/11 09:30:20;;;;;;;6.80;3.43;;;;;;;0.52;100.00;98447.35;1477878;87;21713;-78
2022/12/11 09:32:46;;;;;;;18.53;7.60;;;;;;;0.56;100.00;98448.27;1485828;87;21522;-78
2022/12/11 09:35:12;;;;;;;8.80;5.03;;;;;;;0.57;100.00;98451.69;1479055;87;21836;-78
2022/12/11 09:37:38;;;;;;;8.13;5.30;;;;;;;0.55;100.00;98457.53;1479197;88;21508;-78
2022/12/11 09:40:06;;;;;;;7.10;5.07;;;;;;;0.57;100.00;98469.42;1476933;88;21810;-78
2022/12/11 09:42:53;;;;;;;12.67;5.97;;;;;;;0.52;100.00;98482.04;1470314;88;21515;-78
2022/12/11 09:45:20;;;;;;;18.87;9.00;;;;;;;0.48;100.00;98485.02;1475438;88;21767;-78
2022/12/11 09:47:56;;;;;;;9.57;5.40;;;;;;;0.53;100.00;98491.48;1468743;88;21841;-85
2022/12/11 09:50:29;;;;;;;8.73;5.47;;;;;;;0.56;100.00;98490.40;1482091;88;21822;-81
2022/12/11 09:53:18;;;;;;;12.10;9.03;;;;;;;0.61;100.00;98505.16;1480137;88;21803;-83
2022/12/11 09:56:09;;;;;;;10.87;9.63;;;;;;;0.61;100.00;98505.16;1478045;88;22710;-84
2022/12/11 09:59:17;;;;;;;4.30;2.98;;;;;;;0.50;100.00;98506.55;1472405;87;21845;-83
2022/12/11 10:02:17;;;;;;;4.63;2.67;;;;;;;0.54;100.00;98504.02;1477971;88;21967;-80
2022/12/11 10:05:32;;;;;;;3.30;2.37;;;;;;;0.60;100.00;98509.52;1476759;87;22674;-83
2022/12/11 10:08:32;;;;;;;2.17;1.90;;;;;;;0.62;100.00;98513.30;1474898;88;21610;-85
2022/12/11 10:11:27;;;;;;;4.50;2.47;;;;;;;0.63;100.00;98517.54;1478408;88;21918;-81
2022/12/11 10:14:21;;;;;;;3.97;2.43;;;;;;;0.67;100.00;98521.55;1477812;87;21738;-84
2022/12/11 10:24:02;;;;;;;4.30;2.80;;;;;;;0.69;99.77;98519.62;1402021;88;22747;-83
2022/12/11 10:26:29;;;;;;;11.00;6.43;;;;;;;0.84;100.00;98534.43;1399068;88;21716;-83
2022/12/11 10:29:02;;;;;;;4.83;3.43;;;;;;;0.84;100.00;98534.43;1402831;88;21856;-84
2022/12/11 10:31:48;;;;;;;3.53;2.50;;;;;;;0.94;98.93;98544.87;1388036;89;21929;-84
2022/12/11 10:34:23;;;;;;;3.00;2.20;;;;;;;0.94;98.93;98544.87;1400922;88;22027;-82
2022/12/11 10:37:17;;;;;;;3.77;2.60;;;;;;;1.01;96.72;98568.14;1475563;88;22438;-83
2022/12/11 10:39:43;;;;;;;4.30;3.13;;;;;;;1.01;96.72;98568.14;1480523;88;22121;-84
2022/12/11 10:42:17;;;;;;;4.40;2.87;;;;;;;1.09;98.90;98577.40;1476147;87;21721;-83
2022/12/11 10:45:00;;;;;;;4.93;3.40;;;;;;;1.28;97.77;98587.88;1475293;88;21529;-85
2022/12/11 10:47:26;;;;;;;4.50;2.73;;;;;;;1.28;97.77;98587.88;1476156;88;21963;-84
2022/12/11 10:50:02;;;;;;;8.00;4.90;;;;;;;1.32;95.51;98590.59;1481273;87;22365;-84
2022/12/11 10:52:44;;;;;;;98.60;28.50;;;;;;;1.33;95.55;98606.56;1564412;87;22074;-84
2022/12/11 10:55:39;;;;;;;19.10;8.43;;;;;;;1.33;95.55;98606.56;1564560;87;22103;-84
2022/12/11 10:58:06;;;;;;;14.17;8.20;;;;;;;1.33;93.45;98616.98;1408940;88;22688;-80
2022/12/11 11:00:37;;;;;;;61.37;30.77;;;;;;;1.40;94.42;98621.66;1561825;88;22094;-80
2022/12/11 11:03:22;;;;;;;;;;;;;;;1.40;94.42;98621.66;1452460;88;22682;-82
2022/12/11 11:05:49;;;;;;;6.93;4.40;;;;;;;1.47;93.88;98618.39;1564413;88;20336;-84
2022/12/11 11:08:24;;;;;;;3.40;2.40;;;;;;;1.47;88.06;98613.66;1401327;88;21765;-82
2022/12/11 11:10:57;;;;;;;6.20;3.80;;;;;;;1.64;91.14;98633.02;1564441;87;22001;-83
2022/12/11 11:13:28;;;;;;;10.50;6.63;;;;;;;1.67;90.92;98637.97;1399254;87;21962;-88
2022/12/11 11:16:06;;;;;;;9.20;5.25;;;;;;;1.67;90.92;98637.97;1540960;88;21854;-81
2022/12/11 11:18:33;;;;;;;7.07;4.63;;;;;;;1.71;91.86;98640.19;1564403;87;21308;-83
2022/12/11 11:21:00;;;;;;;13.87;5.50;;;;;;;1.66;88.21;98637.63;1401841;88;22103;-82
2022/12/11 11:23:27;;;;;;;5.57;3.67;;;;;;;1.66;88.21;98637.63;1402007;88;22055;-80
2022/12/11 11:26:00;;;;;;;6.20;3.57;;;;;;;1.74;89.08;98633.88;1402073;88;23019;-83
2022/12/11 11:28:31;;;;;;;11.20;4.93;;;;;;;1.81;88.87;98635.75;1564512;87;22169;-83
2022/12/11 11:31:02;;;;;;;9.13;4.80;;;;;;;1.87;88.96;98635.75;1557463;88;22237;-84
2022/12/11 11:33:30;;;;;;;8.10;5.33;;;;;;;1.90;86.49;98630.72;1563165;88;21375;-86
2022/12/11 11:36:01;;;;;;;7.03;4.00;;;;;;;1.96;88.25;98632.81;1400475;87;22029;-85
2022/12/11 11:38:47;;;;;;;3.62;2.75;;;;;;;1.94;84.60;98634.72;1558762;88;22206;-83
2022/12/11 11:41:28;;;;;;;10.37;5.10;;;;;;;1.94;83.02;98625.59;1400205;88;21518;-84
2022/12/11 11:43:59;;;;;;;5.50;3.62;;;;;;;2.03;85.25;98632.59;1399924;88;22991;-85
2022/12/11 11:46:43;;;;;;;;;;;;;;;2.03;81.84;98636.02;1566903;87;21501;-83
2022/12/11 11:49:51;;;;;;;5.47;3.30;;;;;;;2.00;83.83;98632.87;1564252;88;20216;-85
2022/12/11 11:52:28;;;;;;;4.23;3.27;;;;;;;2.00;82.69;98651.95;1558166;87;21992;-84
2022/12/11 11:55:21;;;;;;;4.70;3.20;;;;;;;1.99;81.10;98646.89;1410733;90;22080;-83
2022/12/11 11:58:18;;;;;;;17.13;6.13;;;;;;;2.08;83.44;98641.33;1413481;88;22123;-84
2022/12/11 12:00:44;;;;;;;11.93;6.27;;;;;;;2.19;84.49;98658.98;1548166;88;22960;-87
2022/12/11 12:03:17;;;;;;;5.47;4.07;;;;;;;2.29;86.45;98662.06;1402874;88;22064;-85
2022/12/11 12:06:11;;;;;;;11.80;5.93;;;;;;;2.34;84.41;98674.22;1404494;88;22103;-83
2022/12/11 12:09:16;;;;;;;8.80;5.53;;;;;;;2.41;87.07;98677.92;1401173;89;22082;-84
2022/12/11 12:12:12;;;;;;;7.60;5.13;;;;;;;2.48;88.08;98685.07;1393954;88;22246;-86
2022/12/11 12:15:13;;;;;;;5.83;3.93;;;;;;;2.43;83.87;98693.79;1564715;88;22133;-83
2022/12/11 12:17:49;;;;;;;;;;;;;;;2.42;84.26;98707.00;1402413;88;23034;-85
2022/12/11 12:20:33;;;;;;;15.07;8.67;;;;;;;2.41;86.11;98702.23;1558757;88;20269;-84